Time;durP1;ratioP1;P1;durP2;ratioP2;P2;SDS_P1;SDS_P2;PMS_P1;PMS_P2;Temp;Humidity;BMP_temperature;BMP_pressure;BME280_temperature;BME280_humidity;BME280_pressure;Samples;Min_cycle;Max_cycle;Signal;HPM_P1;HPM_P2
2021/01/28 00:01:21;;;;;;;130.23;121.30;;;5.70;99.90;;;;;;6349236;22;20950;-82
2021/01/28 00:03:54;;;;;;;130.53;121.30;;;5.50;99.90;;;;;;6339288;22;20759;-82
2021/01/28 00:06:37;;;;;;;;;;;;;;;;;;;;;
2021/01/28 00:09:11;;;;;;;133.37;124.23;;;5.50;99.90;;;;;;6338383;22;20407;-82
2021/01/28 00:11:44;;;;;;;133.77;124.37;;;5.50;99.90;;;;;;6349117;22;20779;-82
2021/01/28 00:14:10;;;;;;;129.47;121.60;;;5.60;99.90;;;;;;6339052;22;20404;-83
2021/01/28 00:16:39;;;;;;;132.07;123.27;;;5.50;99.90;;;;;;6349275;22;20401;-83
2021/01/28 00:19:05;;;;;;;133.40;124.80;;;5.60;99.90;;;;;;6338539;22;20931;-82
2021/01/28 00:21:35;;;;;;;130.90;122.23;;;5.60;99.90;;;;;;6337290;22;20433;-82
2021/01/28 00:24:02;;;;;;;131.87;122.47;;;5.50;99.90;;;;;;6348799;22;20405;-81
2021/01/28 00:26:35;;;;;;;132.80;123.00;;;5.50;99.90;;;;;;6338819;22;20398;-82
2021/01/28 00:29:04;;;;;;;133.70;124.33;;;5.60;99.90;;;;;;6338874;22;20700;-82
2021/01/28 00:31:32;;;;;;;134.03;124.53;;;5.50;99.90;;;;;;6349275;22;20405;-81
2021/01/28 00:34:01;;;;;;;137.03;127.57;;;5.50;99.90;;;;;;6339018;22;20489;-82
2021/01/28 00:36:31;;;;;;;132.67;123.87;;;5.50;99.90;;;;;;6347453;22;20404;-82
2021/01/28 00:38:58;;;;;;;134.63;125.87;;;5.50;99.90;;;;;;6338705;22;20416;-82
2021/01/28 00:41:26;;;;;;;134.50;125.90;;;5.50;99.90;;;;;;6338916;22;20433;-83
2021/01/28 00:43:57;;;;;;;137.63;128.10;;;5.50;99.90;;;;;;6338912;22;20393;-82
2021/01/28 00:46:24;;;;;;;138.63;129.10;;;5.50;99.90;;;;;;6349220;22;20432;-81
2021/01/28 00:48:50;;;;;;;138.67;129.37;;;5.60;99.90;;;;;;6338602;22;20401;-82
2021/01/28 00:51:23;;;;;;;137.70;128.23;;;5.50;99.90;;;;;;6336583;22;20397;-82
2021/01/28 00:53:49;;;;;;;137.37;128.43;;;5.50;99.90;;;;;;6338475;22;20424;-82
2021/01/28 00:56:19;;;;;;;136.70;127.13;;;5.50;99.90;;;;;;6338809;22;20431;-81
2021/01/28 00:58:49;;;;;;;134.10;124.93;;;5.60;99.90;;;;;;6349163;22;20397;-82
2021/01/28 01:01:19;;;;;;;133.43;125.23;;;5.70;99.90;;;;;;6338458;22;20432;-81
2021/01/28 01:03:53;;;;;;;142.97;133.17;;;5.50;99.90;;;;;;6348598;22;20538;-81
2021/01/28 01:06:25;;;;;;;139.63;131.30;;;5.60;99.90;;;;;;6347464;22;20804;-83
2021/01/28 01:08:54;;;;;;;135.67;126.90;;;5.60;99.90;;;;;;6338905;22;20400;-82
2021/01/28 01:11:42;;;;;;;136.13;127.23;;;5.50;99.90;;;;;;6338431;22;20432;-81
2021/01/28 01:14:24;;;;;;;;;;;;;;;;;;;;;
2021/01/28 01:16:53;;;;;;;130.77;122.60;;;5.60;99.90;;;;;;6337787;22;20451;-82
2021/01/28 01:19:22;;;;;;;137.90;128.80;;;5.50;99.90;;;;;;6338543;22;20786;-82
2021/01/28 01:21:52;;;;;;;134.90;125.53;;;5.60;99.90;;;;;;6336997;22;20436;-82
2021/01/28 01:24:18;;;;;;;134.43;125.33;;;5.50;99.90;;;;;;6348753;22;20469;-82
2021/01/28 01:26:48;;;;;;;129.57;121.17;;;5.60;99.90;;;;;;6338526;22;20444;-82
2021/01/28 01:29:22;;;;;;;126.87;118.70;;;5.60;99.90;;;;;;6338674;22;20431;-82
2021/01/28 01:31:52;;;;;;;129.93;122.17;;;5.60;99.90;;;;;;6348921;22;20420;-82
2021/01/28 01:34:20;;;;;;;135.33;127.57;;;5.70;99.90;;;;;;6348637;22;20401;-81
2021/01/28 01:36:49;;;;;;;135.30;126.30;;;5.50;99.90;;;;;;6349238;22;20432;-81
2021/01/28 01:39:18;;;;;;;133.47;125.57;;;5.70;99.90;;;;;;6340423;22;20393;-81
2021/01/28 01:41:44;;;;;;;133.80;125.30;;;5.60;99.90;;;;;;6351034;22;20428;-82
2021/01/28 01:44:14;;;;;;;134.83;126.80;;;5.60;99.90;;;;;;6340444;22;20722;-82
2021/01/28 01:46:41;;;;;;;135.50;126.73;;;5.70;99.90;;;;;;6340214;22;20399;-81
2021/01/28 01:49:15;;;;;;;134.53;125.57;;;5.60;99.90;;;;;;6340377;22;20400;-82
2021/01/28 01:51:48;;;;;;;135.33;126.60;;;5.60;99.90;;;;;;6338722;22;20408;-82
2021/01/28 01:54:26;;;;;;;139.07;130.87;;;5.60;99.90;;;;;;6340294;22;20438;-81
2021/01/28 01:56:58;;;;;;;137.47;129.53;;;5.60;99.90;;;;;;6350677;22;20751;-83
2021/01/28 01:59:32;;;;;;;137.83;128.77;;;5.70;99.90;;;;;;6351672;22;20412;-83
2021/01/28 02:02:07;;;;;;;138.83;129.73;;;5.60;99.90;;;;;;6340022;22;20455;-82
2021/01/28 02:04:37;;;;;;;137.73;128.27;;;5.70;99.90;;;;;;6350330;22;20903;-83
2021/01/28 02:07:20;;;;;;;136.73;128.30;;;5.60;99.90;;;;;;6349136;22;20770;-82
2021/01/28 02:09:47;;;;;;;144.37;135.07;;;5.70;99.90;;;;;;6340370;22;20444;-82
2021/01/28 02:12:15;;;;;;;140.00;131.13;;;5.70;99.90;;;;;;6350579;22;20409;-82
2021/01/28 02:14:46;;;;;;;146.63;137.73;;;5.60;99.90;;;;;;6350483;22;20404;-81
2021/01/28 02:17:19;;;;;;;140.13;131.13;;;5.70;99.90;;;;;;6339475;22;20868;-83
2021/01/28 02:20:09;;;;;;;136.83;128.20;;;5.70;99.90;;;;;;6340214;22;20393;-83
2021/01/28 02:22:48;;;;;;;138.27;129.17;;;5.70;99.90;;;;;;6334674;22;20416;-83
2021/01/28 02:25:26;;;;;;;141.10;132.40;;;5.70;99.90;;;;;;6339353;22;20892;-82
2021/01/28 02:28:00;;;;;;;140.80;131.63;;;5.70;99.90;;;;;;6350231;22;20405;-83
2021/01/28 02:30:29;;;;;;;136.40;128.20;;;5.70;99.90;;;;;;6350426;22;20495;-82
2021/01/28 02:33:06;;;;;;;;;;;;;;;;;;;;;
2021/01/28 02:35:44;;;;;;;;;;;;;;;;;;;;;
2021/01/28 02:38:12;;;;;;;137.40;128.87;;;5.50;99.90;;;;;;6339170;22;20415;-82
2021/01/28 02:40:42;;;;;;;139.77;131.17;;;5.60;99.90;;;;;;6339372;22;20916;-82
2021/01/28 02:43:10;;;;;;;139.97;130.57;;;5.60;99.90;;;;;;6269630;22;20429;-82
2021/01/28 02:45:48;;;;;;;138.10;128.40;;;5.60;99.90;;;;;;6339725;22;20401;-83
2021/01/28 02:48:22;;;;;;;136.33;127.73;;;5.50;99.90;;;;;;6338943;22;20418;-83
2021/01/28 02:50:53;;;;;;;137.53;129.23;;;5.50;99.90;;;;;;6348470;22;20393;-82
2021/01/28 02:53:25;;;;;;;142.17;133.43;;;5.40;99.90;;;;;;6339181;22;20910;-82
2021/01/28 02:56:09;;;;;;;141.83;132.60;;;5.50;99.90;;;;;;6339248;22;20428;-84
2021/01/28 02:58:37;;;;;;;141.60;132.30;;;5.50;99.90;;;;;;6349561;22;20409;-84
2021/01/28 03:01:06;;;;;;;142.43;132.87;;;5.50;99.90;;;;;;6349458;22;20440;-82
2021/01/28 03:03:47;;;;;;;;;;;;;;;;;;;;;
2021/01/28 03:06:21;;;;;;;142.77;132.60;;;5.50;99.90;;;;;;6336996;22;20700;-82
2021/01/28 03:08:50;;;;;;;142.67;132.40;;;5.40;99.90;;;;;;6349614;22;20430;-82
2021/01/28 03:11:17;;;;;;;143.93;133.57;;;5.40;99.90;;;;;;6349180;22;20461;-81
2021/01/28 03:13:47;;;;;;;151.40;139.60;;;5.40;99.90;;;;;;6339310;22;20450;-81
2021/01/28 03:19:25;;;;;;;143.43;133.80;;;5.30;99.90;;;;;;6166864;23;20409;-81
2021/01/28 03:21:56;;;;;;;142.90;133.13;;;5.30;99.90;;;;;;6181104;23;20437;-83
2021/01/28 03:24:28;;;;;;;144.43;134.53;;;5.30;99.90;;;;;;6289140;22;20412;-80
2021/01/28 03:27:00;;;;;;;140.80;131.90;;;5.20;99.90;;;;;;6349974;22;20433;-81
2021/01/28 03:29:26;;;;;;;145.30;135.30;;;5.30;99.90;;;;;;6339566;22;20397;-81
2021/01/28 03:31:55;;;;;;;147.40;136.53;;;5.20;99.90;;;;;;6339307;22;20397;-81
2021/01/28 03:34:40;;;;;;;;;;;;;;;;;;;;;
2021/01/28 03:37:26;;;;;;;;;;;;;;;;;;;;;
2021/01/28 03:39:56;;;;;;;145.73;136.87;;;5.10;99.90;;;;;;6343815;22;20714;-83
2021/01/28 03:42:25;;;;;;;151.70;141.90;;;5.20;99.90;;;;;;6338851;22;20406;-78
2021/01/28 03:45:01;;;;;;;153.43;143.43;;;5.10;99.90;;;;;;6349514;22;20896;-81
2021/01/28 03:47:48;;;;;;;154.03;143.97;;;5.10;99.90;;;;;;6339407;22;20424;-83
2021/01/28 03:53:46;;;;;;;;;;;;;;;;;;;;;
2021/01/28 03:56:40;;;;;;;157.23;145.37;;;5.10;99.90;;;;;;6349527;22;20428;-83
2021/01/28 04:00:00;;;;;;;;;;;;;;;;;;;;;
2021/01/28 04:36:58;;;;;;;;;;;;;;;;;;;;;
2021/01/28 04:39:37;;;;;;;175.77;163.97;;;5.00;99.90;;;;;;6225612;22;20773;-84
2021/01/28 04:42:25;;;;;;;175.70;164.03;;;5.00;99.90;;;;;;6307140;22;20429;-83
2021/01/28 04:44:53;;;;;;;170.30;160.50;;;5.00;99.90;;;;;;6307531;22;20402;-82
2021/01/28 04:47:21;;;;;;;172.90;161.90;;;5.00;99.90;;;;;;6317985;22;20417;-82
2021/01/28 04:50:04;;;;;;;;;;;;;;;;;;;;;
2021/01/28 04:52:39;;;;;;;160.90;151.50;;;5.10;99.90;;;;;;6307375;22;20402;-82
2021/01/28 04:55:12;;;;;;;164.83;154.13;;;5.00;99.90;;;;;;6307612;22;20425;-81
2021/01/28 04:57:38;;;;;;;167.40;156.60;;;5.00;99.90;;;;;;6307504;22;20398;-82
2021/01/28 05:00:10;;;;;;;161.03;152.03;;;4.90;99.90;;;;;;6307637;22;20393;-83
2021/01/28 05:02:38;;;;;;;163.90;154.30;;;5.00;99.90;;;;;;6318150;22;20955;-82
2021/01/28 05:05:08;;;;;;;164.67;155.47;;;4.90;99.90;;;;;;6287515;22;20458;-83
2021/01/28 05:07:40;;;;;;;167.60;157.33;;;5.00;99.90;;;;;;6307616;22;20398;-82
2021/01/28 05:10:47;;;;;;;;;;;;;;;;;;;;;
2021/01/28 05:13:56;;;;;;;172.67;163.37;;;5.00;99.90;;;;;;6276258;22;20443;-82
2021/01/28 05:16:42;;;;;;;166.90;158.60;;;5.00;99.90;;;;;;6306939;22;20402;-83
2021/01/28 05:19:31;;;;;;;165.80;156.73;;;4.90;99.90;;;;;;6307026;22;20398;-84
2021/01/28 05:22:29;;;;;;;165.03;155.50;;;5.00;99.90;;;;;;6315946;22;20441;-84
2021/01/28 05:25:33;;;;;;;185.93;175.57;;;4.90;99.90;;;;;;6289422;22;20413;-85
2021/01/28 05:28:43;;;;;;;;;;;;;;;;;;;;;
2021/01/28 05:35:03;;;;;;;;;;;;;;;;;;;;;
2021/01/28 05:40:55;;;;;;;177.33;167.83;;;4.90;99.90;;;;;;6110904;23;20433;-84
2021/01/28 05:43:47;;;;;;;178.90;168.90;;;4.90;99.90;;;;;;6269905;22;20402;-82
2021/01/28 05:46:43;;;;;;;;;;;;;;;;;;;;;
2021/01/28 05:49:33;;;;;;;188.60;177.37;;;4.90;99.90;;;;;;6303318;22;20410;-83
2021/01/28 05:52:23;;;;;;;179.63;168.87;;;5.00;99.90;;;;;;6315732;22;20476;-82
2021/01/28 05:55:23;;;;;;;;;;;;;;;;;;;;;
2021/01/28 05:58:05;;;;;;;172.53;163.13;;;4.90;99.90;;;;;;6212599;22;20408;-83
2021/01/28 06:00:40;;;;;;;173.10;163.00;;;4.90;99.90;;;;;;6307131;22;20432;-83
2021/01/28 06:03:57;;;;;;;174.53;164.43;;;4.90;99.90;;;;;;6306833;22;20397;-83
2021/01/28 06:06:55;;;;;;;171.50;162.10;;;4.90;99.90;;;;;;6315895;22;20444;-82
2021/01/28 06:09:59;;;;;;;170.43;161.10;;;4.80;99.90;;;;;;6307307;22;20398;-84
2021/01/28 06:12:40;;;;;;;173.00;162.70;;;4.80;99.90;;;;;;6306999;22;20395;-83
2021/01/28 06:15:37;;;;;;;176.97;167.47;;;4.80;99.90;;;;;;6306623;22;20398;-82
2021/01/28 06:18:48;;;;;;;174.70;164.80;;;4.80;99.90;;;;;;6306970;22;20402;-82
2021/01/28 06:22:02;;;;;;;;;;;;;;;;;;;;;
2021/01/28 06:24:52;;;;;;;173.63;163.83;;;4.70;99.90;;;;;;6294660;22;20458;-84
2021/01/28 06:27:55;;;;;;;176.43;166.07;;;4.80;99.90;;;;;;6308659;22;20481;-84
2021/01/28 06:30:31;;;;;;;168.60;159.90;;;4.70;99.90;;;;;;6318374;22;20912;-83
2021/01/28 06:33:39;;;;;;;;;;;;;;;;;;;;;
2021/01/28 06:36:38;;;;;;;177.23;167.70;;;4.80;99.90;;;;;;6317169;22;20390;-83
2021/01/28 06:39:28;;;;;;;;;;;;;;;;;;;;;
2021/01/28 06:42:17;;;;;;;172.97;163.70;;;4.80;99.90;;;;;;6305376;22;20445;-81
2021/01/28 06:45:16;;;;;;;;;;;;;;;;;;;;;
2021/01/28 06:48:30;;;;;;;171.67;162.10;;;4.80;99.90;;;;;;6309963;22;20409;-84
2021/01/28 06:54:45;;;;;;;;;;;;;;;;;;;;;
2021/01/28 06:57:19;;;;;;;172.20;163.00;;;4.80;99.90;;;;;;6318655;22;20422;-82
2021/01/28 06:59:56;;;;;;;170.00;160.83;;;4.70;99.90;;;;;;6318174;22;20913;-81
2021/01/28 07:02:44;;;;;;;167.13;158.20;;;4.70;99.90;;;;;;6308176;22;20425;-83
2021/01/28 07:05:39;;;;;;;;;;;;;;;;;;;;;
2021/01/28 07:17:59;;;;;;;172.63;163.40;;;4.60;99.90;;;;;;6148987;23;20413;-81
2021/01/28 07:20:32;;;;;;;167.77;158.53;;;4.70;99.90;;;;;;6268994;22;20402;-81
2021/01/28 07:23:24;;;;;;;168.63;159.57;;;4.70;99.90;;;;;;6318161;22;20494;-81
2021/01/28 07:25:56;;;;;;;171.87;162.60;;;4.70;99.90;;;;;;6308421;22;20426;-81
2021/01/28 07:28:35;;;;;;;169.50;159.60;;;4.70;99.90;;;;;;6308141;22;20394;-82
2021/01/28 07:31:40;;;;;;;171.70;162.30;;;4.70;99.90;;;;;;6318274;22;20507;-82
2021/01/28 07:34:29;;;;;;;168.30;159.30;;;4.70;99.90;;;;;;6318267;22;20412;-81
2021/01/28 07:37:18;;;;;;;173.87;163.77;;;4.70;99.90;;;;;;6306386;22;20394;-82
2021/01/28 07:39:46;;;;;;;172.00;162.30;;;4.70;99.90;;;;;;6307757;22;20406;-82
2021/01/28 07:42:31;;;;;;;170.43;160.97;;;4.60;99.90;;;;;;6318030;22;20437;-82
2021/01/28 07:44:59;;;;;;;172.03;162.07;;;4.70;99.90;;;;;;6307841;22;20402;-83
2021/01/28 07:47:51;;;;;;;179.50;168.47;;;4.70;99.90;;;;;;6318403;22;20448;-82
2021/01/28 07:50:35;;;;;;;171.87;161.80;;;4.70;99.90;;;;;;6306601;22;20573;-82
2021/01/28 07:53:38;;;;;;;176.03;165.40;;;4.70;99.90;;;;;;6307712;22;20524;-83
2021/01/28 07:56:26;;;;;;;173.33;164.10;;;4.70;99.90;;;;;;6308049;22;20406;-81
2021/01/28 07:58:56;;;;;;;170.60;161.17;;;4.60;99.90;;;;;;6307496;22;20504;-82
2021/01/28 08:01:24;;;;;;;168.00;159.10;;;4.60;99.90;;;;;;6307906;22;20470;-83
2021/01/28 08:04:02;;;;;;;169.07;159.07;;;4.60;99.90;;;;;;6308007;22;20398;-83
2021/01/28 08:06:34;;;;;;;170.70;161.10;;;4.70;99.90;;;;;;6317047;22;20413;-83
2021/01/28 08:09:09;;;;;;;169.67;159.37;;;4.60;99.90;;;;;;6307596;22;20406;-82
2021/01/28 08:11:36;;;;;;;171.57;160.83;;;4.70;99.90;;;;;;6307859;22;20441;-83
2021/01/28 08:14:22;;;;;;;171.40;161.53;;;4.70;99.90;;;;;;6307930;22;20398;-83
2021/01/28 08:16:51;;;;;;;170.60;160.57;;;4.70;99.90;;;;;;6308025;22;20398;-82
2021/01/28 08:19:26;;;;;;;164.77;155.70;;;4.60;99.90;;;;;;6307856;22;20398;-82
2021/01/28 08:22:04;;;;;;;161.83;152.57;;;4.70;99.90;;;;;;6316717;22;20465;-82
2021/01/28 08:24:39;;;;;;;163.73;154.93;;;4.70;99.90;;;;;;6318292;22;20437;-83
2021/01/28 08:27:19;;;;;;;168.10;158.37;;;4.70;99.90;;;;;;6307979;22;20404;-83
2021/01/28 08:29:46;;;;;;;176.77;166.67;;;4.60;99.90;;;;;;6318162;22;20406;-82
2021/01/28 08:32:40;;;;;;;;;;;;;;;;;;;;;
2021/01/28 08:35:11;;;;;;;165.60;156.73;;;4.70;99.90;;;;;;6302723;22;20615;-82
2021/01/28 08:37:42;;;;;;;168.10;158.63;;;4.60;99.90;;;;;;6307262;22;20481;-83
2021/01/28 08:40:15;;;;;;;167.87;157.57;;;4.70;99.90;;;;;;6318064;22;20409;-81
2021/01/28 08:42:42;;;;;;;166.10;157.00;;;4.70;99.90;;;;;;6317462;22;20426;-85
2021/01/28 08:45:15;;;;;;;162.67;153.90;;;4.80;99.90;;;;;;6317477;22;20405;-81
2021/01/28 08:47:42;;;;;;;159.90;151.90;;;4.70;99.90;;;;;;6303757;22;20398;-82
2021/01/28 08:50:14;;;;;;;165.03;156.40;;;4.80;99.90;;;;;;6303675;22;20398;-81
2021/01/28 08:52:45;;;;;;;174.47;164.77;;;4.70;99.90;;;;;;6305094;22;20457;-83
2021/01/28 08:55:27;;;;;;;165.83;157.47;;;4.80;99.90;;;;;;6305131;22;20405;-81
2021/01/28 08:58:12;;;;;;;164.20;156.60;;;4.70;99.90;;;;;;6315032;22;20402;-82
2021/01/28 09:00:49;;;;;;;165.90;157.33;;;4.70;99.90;;;;;;6315135;22;20416;-82
2021/01/28 09:03:23;;;;;;;168.03;158.43;;;4.80;99.90;;;;;;6315849;22;20406;-83
2021/01/28 09:05:56;;;;;;;168.23;159.93;;;4.80;99.90;;;;;;6304159;22;20394;-82
2021/01/28 09:08:32;;;;;;;168.93;159.87;;;4.80;99.90;;;;;;6315881;22;20772;-83
2021/01/28 09:11:10;;;;;;;173.80;164.20;;;4.80;99.90;;;;;;6315588;22;20963;-85
2021/01/28 09:13:42;;;;;;;169.07;160.17;;;4.90;99.90;;;;;;6305092;22;20972;-82
2021/01/28 09:16:12;;;;;;;170.60;161.80;;;4.90;99.90;;;;;;6305316;22;20436;-82
2021/01/28 09:18:43;;;;;;;169.90;161.30;;;5.00;99.90;;;;;;6305383;22;20433;-84
2021/01/28 09:21:12;;;;;;;174.27;165.30;;;4.90;99.90;;;;;;6314718;22;20437;-85
2021/01/28 09:23:57;;;;;;;168.87;159.97;;;4.90;99.90;;;;;;6305886;22;20402;-83
2021/01/28 09:26:38;;;;;;;;;;;;;;;;;;;;;
2021/01/28 09:29:19;;;;;;;164.63;156.73;;;4.90;99.90;;;;;;6304807;22;20404;-83
2021/01/28 09:32:06;;;;;;;165.07;156.67;;;4.90;99.90;;;;;;6315895;22;20441;-85
2021/01/28 09:34:42;;;;;;;165.60;157.40;;;4.90;99.90;;;;;;6305498;22;20430;-84
2021/01/28 09:37:19;;;;;;;163.27;155.07;;;4.90;99.90;;;;;;6314086;22;20397;-84
2021/01/28 09:40:11;;;;;;;164.90;156.43;;;4.90;99.90;;;;;;6305518;22;20402;-85
2021/01/28 09:42:40;;;;;;;166.53;157.90;;;5.00;99.90;;;;;;6314814;22;20498;-83
2021/01/28 09:45:21;;;;;;;163.63;155.37;;;5.00;99.90;;;;;;6305555;22;20437;-83
2021/01/28 09:48:00;;;;;;;165.13;156.93;;;5.00;99.90;;;;;;6316088;22;20444;-85
2021/01/28 09:50:41;;;;;;;168.50;159.97;;;5.00;99.90;;;;;;6314281;22;20440;-84
2021/01/28 09:53:11;;;;;;;165.33;156.57;;;5.10;99.90;;;;;;6305663;22;20429;-83
2021/01/28 09:55:41;;;;;;;162.27;153.83;;;5.00;99.90;;;;;;6315579;22;20501;-83
2021/01/28 09:58:07;;;;;;;160.80;152.80;;;5.10;99.90;;;;;;6307071;22;20405;-84
2021/01/28 10:00:39;;;;;;;164.57;156.43;;;5.00;99.90;;;;;;6307230;22;20397;-83
2021/01/28 10:03:18;;;;;;;161.50;153.47;;;5.00;99.90;;;;;;6306731;22;20455;-85
2021/01/28 10:05:51;;;;;;;167.37;159.43;;;5.00;99.90;;;;;;6316232;22;20401;-83
2021/01/28 10:08:24;;;;;;;162.40;154.47;;;5.10;99.90;;;;;;6309149;22;20401;-84
2021/01/28 10:10:54;;;;;;;158.03;150.03;;;5.10;99.90;;;;;;6309144;22;20477;-85
2021/01/28 10:13:36;;;;;;;161.00;151.60;;;5.10;99.90;;;;;;6309264;22;20390;-85
2021/01/28 10:16:27;;;;;;;162.27;154.00;;;5.20;99.90;;;;;;6308805;22;20404;-84
2021/01/28 10:19:10;;;;;;;163.37;155.50;;;5.20;99.90;;;;;;6289646;22;20502;-85
2021/01/28 10:21:36;;;;;;;156.20;148.90;;;5.20;99.90;;;;;;6317565;22;20440;-86
2021/01/28 10:24:33;;;;;;;157.57;149.47;;;5.30;99.90;;;;;;6319036;22;20409;-85
2021/01/28 10:27:11;;;;;;;156.53;148.70;;;5.30;99.90;;;;;;6295915;22;20476;-85
2021/01/28 10:29:48;;;;;;;154.50;146.80;;;5.30;99.90;;;;;;6319540;22;20503;-84
2021/01/28 10:32:21;;;;;;;157.10;149.50;;;5.30;99.90;;;;;;6308603;22;20944;-83
2021/01/28 10:34:49;;;;;;;159.67;151.47;;;5.40;99.90;;;;;;6308848;22;20394;-86
2021/01/28 10:37:19;;;;;;;158.97;150.70;;;5.50;99.90;;;;;;6307134;22;20877;-87
2021/01/28 10:40:19;;;;;;;158.10;150.03;;;5.50;99.90;;;;;;6305618;22;20439;-86
2021/01/28 10:46:43;;;;;;;;;;;;;;;;;;;;;
2021/01/28 10:49:50;;;;;;;;;;;;;;;;;;;;;
2021/01/28 10:58:56;;;;;;;150.40;142.30;;;5.50;99.90;;;;;;6096121;23;20413;-85
2021/01/28 11:01:23;;;;;;;153.30;144.83;;;5.50;99.90;;;;;;6319160;22;20422;-87
2021/01/28 11:04:17;;;;;;;;;;;;;;;;;;;;;
2021/01/28 11:07:39;;;;;;;;;;;;;;;;;;;;;
2021/01/28 11:10:21;;;;;;;157.40;149.00;;;5.60;99.90;;;;;;6307814;22;20785;-83
2021/01/28 11:16:12;;;;;;;153.67;145.60;;;5.70;99.90;;;;;;6104253;22;20786;-86
2021/01/28 11:18:44;;;;;;;155.10;146.90;;;5.70;99.90;;;;;;6308648;22;20873;-85
2021/01/28 11:21:50;;;;;;;152.90;145.33;;;5.70;99.90;;;;;;6307214;22;20422;-84
2021/01/28 11:24:41;;;;;;;156.07;148.37;;;5.80;99.90;;;;;;6134015;23;20433;-87
2021/01/28 11:27:48;;;;;;;150.70;143.07;;;5.80;99.90;;;;;;6133890;23;20419;-86
2021/01/28 11:30:58;;;;;;;;;;;;;;;;;;;;;
2021/01/28 11:51:40;;;;;;;138.77;132.00;;;6.00;99.90;;;;;;6043699;23;20500;-84
2021/01/28 11:55:03;;;;;;;138.37;131.73;;;6.00;99.90;;;;;;6021066;23;20447;-83
2021/01/28 11:57:35;;;;;;;138.90;131.90;;;6.00;99.90;;;;;;6094684;23;20521;-84
2021/01/28 12:00:17;;;;;;;137.30;130.50;;;6.10;99.90;;;;;;6168097;23;20459;-86
2021/01/28 12:03:04;;;;;;;137.80;130.87;;;6.00;99.90;;;;;;6241491;22;20446;-86
2021/01/28 12:06:16;;;;;;;;;;;;;;;;;;;;;
2021/01/28 12:09:10;;;;;;;135.80;129.40;;;6.30;99.90;;;;;;6287475;22;20395;-87
2021/01/28 12:21:56;;;;;;;;;;;;;;;;;;;;;
2021/01/28 12:25:00;;;;;;;;;;;;;;;;;;;;;
2021/01/28 12:43:12;;;;;;;144.67;137.37;;;7.10;99.90;;;;;;5828242;24;20451;-85
2021/01/28 12:45:52;;;;;;;138.60;132.10;;;7.20;99.90;;;;;;5985223;23;20189;-85
2021/01/28 12:48:45;;;;;;;128.70;122.70;;;7.30;99.90;;;;;;6122710;23;20985;-86
2021/01/28 12:51:29;;;;;;;125.90;120.00;;;7.30;99.90;;;;;;6185668;22;20521;-82
2021/01/28 12:56:52;;;;;;;109.47;104.20;;;7.30;99.90;;;;;;6279889;22;20410;-83
2021/01/28 12:59:45;;;;;;;103.60;99.10;;;7.20;99.90;;;;;;6288061;22;20428;-82
2021/01/28 13:02:29;;;;;;;100.10;95.63;;;7.00;99.90;;;;;;6231826;22;20473;-82
2021/01/28 13:05:36;;;;;;;;;;;;;;;;;;;;;
2021/01/28 13:08:14;;;;;;;;;;;;;;;;;;;;;
2021/01/28 13:11:03;;;;;;;105.77;100.83;;;6.90;99.90;;;;;;6285655;22;20410;-83
2021/01/28 13:20:36;;;;;;;;;;;;;;;;;;;;;
2021/01/28 13:26:44;;;;;;;;;;;;;;;;;;;;;
2021/01/28 13:29:23;;;;;;;114.30;108.20;;;6.90;99.90;;;;;;5970952;24;20422;-83
2021/01/28 13:32:19;;;;;;;;;;;;;;;;;;;;;
2021/01/28 13:34:52;;;;;;;120.00;113.97;;;6.90;99.90;;;;;;6066310;23;20850;-84
2021/01/28 13:37:42;;;;;;;121.93;116.00;;;6.90;99.90;;;;;;6077849;23;21023;-82
2021/01/28 13:40:14;;;;;;;118.63;112.33;;;6.90;99.90;;;;;;6153722;23;20422;-81
2021/01/28 13:42:44;;;;;;;120.30;114.40;;;6.90;99.90;;;;;;6153457;23;20807;-85
2021/01/28 13:45:27;;;;;;;117.50;111.40;;;7.00;99.90;;;;;;6153799;23;21023;-84
2021/01/28 13:48:01;;;;;;;120.70;114.60;;;6.90;99.90;;;;;;6153968;23;20894;-82
2021/01/28 13:50:39;;;;;;;;;;;;;;;;;;;;;
2021/01/28 13:53:16;;;;;;;116.57;111.10;;;6.90;99.90;;;;;;6275820;22;20402;-84
2021/01/28 13:55:48;;;;;;;116.37;110.70;;;6.90;99.90;;;;;;6285459;22;20494;-83
2021/01/28 13:58:31;;;;;;;118.37;112.67;;;6.90;99.90;;;;;;6275294;22;20761;-87
2021/01/28 14:01:24;;;;;;;118.53;112.57;;;6.90;99.90;;;;;;6275672;22;20410;-88
2021/01/28 14:04:04;;;;;;;115.60;110.07;;;6.90;99.90;;;;;;6272340;22;20413;-85
2021/01/28 14:07:06;;;;;;;;;;;;;;;;;;;;;
2021/01/28 14:09:35;;;;;;;107.50;102.50;;;6.80;99.90;;;;;;6196099;22;20953;-81
2021/01/28 14:12:03;;;;;;;105.53;100.70;;;6.70;99.90;;;;;;6286763;22;20436;-81
2021/01/28 14:14:59;;;;;;;112.10;106.67;;;6.60;99.90;;;;;;6275806;22;20406;-87
2021/01/28 14:17:36;;;;;;;108.63;103.47;;;6.60;99.90;;;;;;6145970;23;20586;-81
2021/01/28 14:20:26;;;;;;;121.10;115.17;;;6.60;99.90;;;;;;6151859;23;20409;-86
2021/01/28 14:23:04;;;;;;;127.80;121.47;;;6.70;99.90;;;;;;6168684;22;20445;-87
2021/01/28 14:25:40;;;;;;;121.33;115.30;;;6.70;99.90;;;;;;6278007;22;20887;-88
2021/01/28 14:28:53;;;;;;;116.87;111.77;;;6.60;99.90;;;;;;6278054;22;20425;-88
2021/01/28 14:31:25;;;;;;;126.30;120.40;;;6.50;99.90;;;;;;6121462;22;20415;-86
2021/01/28 14:33:57;;;;;;;127.37;121.30;;;6.50;99.90;;;;;;6278058;22;20426;-86
2021/01/28 14:36:24;;;;;;;135.43;128.97;;;6.50;99.90;;;;;;6286239;22;20728;-87
2021/01/28 14:39:02;;;;;;;139.03;132.10;;;6.50;99.90;;;;;;6209101;22;20417;-82
2021/01/28 14:41:35;;;;;;;133.40;126.90;;;6.60;99.90;;;;;;6277943;22;20398;-82
2021/01/28 14:44:02;;;;;;;141.27;133.30;;;6.70;99.90;;;;;;6277623;22;20396;-83
2021/01/28 14:46:54;;;;;;;142.10;134.57;;;6.60;99.90;;;;;;6277927;22;20424;-82
2021/01/28 14:49:35;;;;;;;138.17;131.33;;;6.70;99.90;;;;;;6273540;22;20406;-83
2021/01/28 14:52:03;;;;;;;144.27;137.03;;;6.60;99.90;;;;;;6276214;22;20525;-88
2021/01/28 14:54:39;;;;;;;137.63;131.00;;;6.70;99.90;;;;;;6287875;22;20887;-83
2021/01/28 15:00:12;;;;;;;138.37;131.70;;;6.50;99.90;;;;;;6275158;22;20407;-88
2021/01/28 15:06:49;;;;;;;;;;;;;;;;;;;;;
2021/01/28 15:09:32;;;;;;;141.80;135.20;;;6.50;99.90;;;;;;6288037;22;20390;-86
2021/01/28 15:12:47;;;;;;;;;;;;;;;;;;;;;
2021/01/28 15:19:08;;;;;;;;;;;;;;;;;;;;;
2021/01/28 15:28:09;;;;;;;153.17;145.97;;;6.50;99.90;;;;;;5906913;24;20415;-83
2021/01/28 15:59:06;;;;;;;151.83;144.57;;;6.20;99.90;;;;;;6007518;23;20419;-81
2021/01/28 16:32:47;;;;;;;159.00;151.90;;;5.80;99.90;;;;;;5863268;24;20610;-86
2021/01/28 16:35:21;;;;;;;168.10;160.67;;;5.80;99.90;;;;;;5896320;23;20682;-85
2021/01/28 16:37:48;;;;;;;156.20;149.47;;;5.90;99.90;;;;;;6120731;23;20471;-87
2021/01/28 16:40:16;;;;;;;160.07;153.20;;;5.80;99.90;;;;;;6121773;23;20895;-84
2021/01/28 16:42:43;;;;;;;162.77;155.77;;;5.80;99.90;;;;;;6155884;23;20522;-86
2021/01/28 16:45:16;;;;;;;167.93;160.43;;;5.70;99.90;;;;;;6244680;23;20423;-83
2021/01/28 16:47:43;;;;;;;161.53;154.43;;;5.70;99.90;;;;;;6244346;23;20479;-83
2021/01/28 16:50:15;;;;;;;157.80;150.50;;;5.70;99.90;;;;;;6252775;23;20522;-83
2021/01/28 16:52:47;;;;;;;164.67;157.43;;;5.70;99.90;;;;;;6244417;23;20471;-84
2021/01/28 16:55:15;;;;;;;153.13;146.37;;;5.80;99.90;;;;;;6243353;23;20728;-82
2021/01/28 16:57:53;;;;;;;;;;;;;;;;;;;;;
2021/01/28 17:00:35;;;;;;;167.33;158.73;;;5.70;99.90;;;;;;6255417;23;20453;-85
2021/01/28 17:03:31;;;;;;;163.53;155.97;;;5.70;99.90;;;;;;6244883;23;20511;-88
2021/01/28 17:19:10;;;;;;;186.43;176.93;;;5.70;99.90;;;;;;5989438;23;20420;-86
2021/01/28 17:21:44;;;;;;;187.77;179.13;;;5.60;99.90;;;;;;6016526;23;20406;-86
2021/01/28 17:24:12;;;;;;;175.27;165.87;;;5.70;99.90;;;;;;6187112;22;20418;-87
2021/01/28 17:26:53;;;;;;;191.63;180.87;;;5.60;99.90;;;;;;6276481;22;20737;-86
2021/01/28 17:29:23;;;;;;;171.57;162.83;;;5.80;99.90;;;;;;6276679;22;20719;-85
2021/01/28 17:31:52;;;;;;;185.90;176.13;;;5.70;99.90;;;;;;6287063;22;20719;-86
2021/01/28 17:34:54;;;;;;;;;;;;;;;;;;;;;
2021/01/28 17:37:22;;;;;;;168.27;160.97;;;5.70;99.90;;;;;;6229678;22;20413;-83
2021/01/28 17:43:32;;;;;;;;;;;;;;;;;;;;;
2021/01/28 17:46:53;;;;;;;;;;;;;;;;;;;;;
2021/01/28 17:50:02;;;;;;;179.80;170.90;;;5.70;99.90;;;;;;5807413;24;21064;-83
2021/01/28 18:19:55;;;;;;;191.47;181.40;;;5.60;99.90;;;;;;5848380;24;20535;-83
2021/01/28 18:23:07;;;;;;;188.07;178.07;;;5.70;99.90;;;;;;5975189;23;20450;-83
2021/01/28 18:26:05;;;;;;;191.80;181.07;;;5.70;99.90;;;;;;6047282;23;20413;-84
2021/01/28 18:28:45;;;;;;;200.47;190.27;;;5.60;99.90;;;;;;6108856;23;20415;-81
2021/01/28 18:31:46;;;;;;;;;;;;;;;;;;;;;